createdAt,value
2022-10-29T00:01:00.939Z,5.00
2022-10-29T00:03:28.298Z,4.80
2022-10-29T00:05:57.421Z,5.20
2022-10-29T00:08:24.955Z,8.45
2022-10-29T00:10:52.339Z,6.65
2022-10-29T00:13:19.880Z,5.80
2022-10-29T00:15:47.283Z,6.05
2022-10-29T00:18:14.610Z,5.22
2022-10-29T00:20:41.954Z,5.80
2022-10-29T00:23:09.256Z,5.88
2022-10-29T00:25:36.618Z,4.70
2022-10-29T00:28:03.934Z,4.80
2022-10-29T00:30:31.231Z,5.28
2022-10-29T00:32:58.598Z,4.47
2022-10-29T00:35:26.315Z,4.53
2022-10-29T00:37:53.903Z,4.88
2022-10-29T00:40:21.361Z,5.07
2022-10-29T00:42:48.738Z,5.05
2022-10-29T00:45:21.660Z,5.20
2022-10-29T00:47:53.069Z,5.20
2022-10-29T00:50:23.582Z,5.70
2022-10-29T00:52:51.980Z,5.18
2022-10-29T00:55:20.793Z,5.30
2022-10-29T00:57:51.991Z,4.75
2022-10-29T01:00:20.664Z,5.10
2022-10-29T01:02:48.328Z,5.30
2022-10-29T01:05:24.945Z,5.10
2022-10-29T01:07:52.251Z,4.72
2022-10-29T01:10:27.801Z,5.38
2022-10-29T01:13:13.793Z,4.93
2022-10-29T01:15:55.835Z,4.82
2022-10-29T01:18:47.774Z,4.80
2022-10-29T01:21:36.454Z,4.95
2022-10-29T01:24:28.423Z,4.93
2022-10-29T01:27:14.336Z,4.70
2022-10-29T01:29:47.304Z,4.93
2022-10-29T01:32:25.087Z,5.30
2022-10-29T01:35:29.801Z,4.78
2022-10-29T01:38:02.930Z,4.97
2022-10-29T01:40:34.984Z,5.15
2022-10-29T01:43:11.415Z,4.72
2022-10-29T01:45:54.788Z,4.57
2022-10-29T01:48:33.126Z,7.05
2022-10-29T01:51:08.259Z,6.35
2022-10-29T01:53:37.440Z,5.03
2022-10-29T01:56:05.095Z,5.18
2022-10-29T01:58:33.629Z,4.50
2022-10-29T02:01:29.676Z,4.88
2022-10-29T02:04:07.926Z,4.90
2022-10-29T02:07:02.772Z,5.50
2022-10-29T02:09:46.155Z,5.00
2022-10-29T02:12:31.252Z,4.50
2022-10-29T02:15:07.005Z,4.90
2022-10-29T02:17:35.561Z,4.60
2022-10-29T02:20:08.922Z,4.25
2022-10-29T02:22:36.267Z,4.40
2022-10-29T02:25:04.371Z,5.07
2022-10-29T02:27:31.710Z,5.03
2022-10-29T02:29:58.892Z,5.30
2022-10-29T02:32:26.378Z,4.95
2022-10-29T02:34:53.600Z,4.63
2022-10-29T02:37:20.823Z,4.88
2022-10-29T02:39:48.040Z,4.80
2022-10-29T02:42:15.394Z,4.13
2022-10-29T02:44:42.570Z,4.60
2022-10-29T02:47:09.838Z,4.63
2022-10-29T02:49:37.091Z,4.65
2022-10-29T02:52:04.634Z,5.05
2022-10-29T02:54:32.083Z,4.90
2022-10-29T02:56:59.527Z,5.00
2022-10-29T02:59:26.757Z,4.90
2022-10-29T03:01:54.082Z,5.40
2022-10-29T03:04:21.477Z,5.28
2022-10-29T03:06:48.801Z,5.05
2022-10-29T03:09:16.093Z,5.05
2022-10-29T03:11:43.346Z,4.95
2022-10-29T03:14:10.675Z,5.68
2022-10-29T03:16:37.903Z,4.85
2022-10-29T03:19:05.125Z,5.10
2022-10-29T03:21:32.345Z,4.65
2022-10-29T03:23:59.833Z,4.85
2022-10-29T03:26:27.169Z,5.30
2022-10-29T03:28:56.212Z,4.78
2022-10-29T03:31:23.442Z,4.95
2022-10-29T03:33:50.744Z,5.60
2022-10-29T03:36:18.083Z,5.38
2022-10-29T03:38:45.528Z,6.25
2022-10-29T03:41:12.744Z,4.60
2022-10-29T03:43:40.306Z,5.80
2022-10-29T03:46:07.932Z,5.20
2022-10-29T03:48:35.539Z,5.72
2022-10-29T03:51:08.484Z,5.60
2022-10-29T03:53:36.891Z,5.57
2022-10-29T03:56:04.757Z,4.97
2022-10-29T03:58:32.050Z,5.53
2022-10-29T04:01:04.864Z,5.55
2022-10-29T04:03:34.952Z,6.45
2022-10-29T04:06:09.281Z,6.40
2022-10-29T04:08:36.489Z,5.20
2022-10-29T04:11:03.763Z,5.78
2022-10-29T04:13:30.993Z,5.40
2022-10-29T04:15:58.274Z,5.28
2022-10-29T04:18:25.655Z,5.40
2022-10-29T04:29:15.852Z,5.18
2022-10-29T04:31:43.148Z,5.60
2022-10-29T04:34:10.517Z,5.78
2022-10-29T04:36:37.779Z,5.85
2022-10-29T04:39:05.141Z,5.88
2022-10-29T04:41:32.553Z,6.25
2022-10-29T04:43:59.828Z,5.78
2022-10-29T04:46:27.078Z,5.75
2022-10-29T04:48:54.378Z,5.70
2022-10-29T04:51:24.559Z,5.53
2022-10-29T04:53:51.879Z,5.15
2022-10-29T04:56:19.311Z,5.40
2022-10-29T04:58:46.698Z,5.65
2022-10-29T05:01:14.304Z,6.05
2022-10-29T05:03:41.660Z,6.07
2022-10-29T05:06:09.007Z,6.13
2022-10-29T05:08:36.352Z,6.47
2022-10-29T05:11:05.098Z,7.35
2022-10-29T05:13:32.941Z,6.68
2022-10-29T05:16:00.668Z,6.05
2022-10-29T05:18:27.988Z,6.22
2022-10-29T05:20:56.138Z,5.90
2022-10-29T05:23:24.033Z,5.93
2022-10-29T05:25:52.547Z,6.55
2022-10-29T05:28:22.245Z,5.38
2022-10-29T05:30:51.579Z,6.07
2022-10-29T05:33:21.698Z,6.03
2022-10-29T05:35:49.249Z,6.47
2022-10-29T05:38:17.197Z,6.35
2022-10-29T05:40:45.528Z,6.18
2022-10-29T05:43:14.629Z,5.97
2022-10-29T05:45:42.521Z,5.60
2022-10-29T05:50:39.620Z,5.85
2022-10-29T05:53:10.294Z,6.28
2022-10-29T05:55:38.149Z,6.32
2022-10-29T05:58:08.107Z,6.78
2022-10-29T06:00:37.808Z,5.95
2022-10-29T06:03:13.532Z,5.88
2022-10-29T06:05:41.121Z,6.15
2022-10-29T06:08:08.869Z,5.47
2022-10-29T06:10:36.281Z,6.07
2022-10-29T06:13:09.299Z,5.72
2022-10-29T06:15:36.501Z,10.18
2022-10-29T06:18:03.938Z,6.95
2022-10-29T06:20:32.038Z,7.00
2022-10-29T06:22:59.924Z,7.60
2022-10-29T06:25:28.230Z,5.75
2022-10-29T06:28:00.108Z,5.97
2022-10-29T06:32:55.341Z,5.95
2022-10-29T06:35:23.444Z,6.55
2022-10-29T06:37:50.849Z,8.05
2022-10-29T06:40:18.430Z,8.77
2022-10-29T06:42:46.133Z,6.68
2022-10-29T06:45:13.896Z,5.95
2022-10-29T06:47:42.524Z,6.90
2022-10-29T06:50:12.070Z,5.55
2022-10-29T06:52:39.740Z,6.65
2022-10-29T06:55:08.128Z,7.88
2022-10-29T06:57:35.765Z,6.40
2022-10-29T07:00:07.416Z,6.30
2022-10-29T07:02:36.009Z,9.18
2022-10-29T07:05:03.345Z,7.70
2022-10-29T07:07:30.587Z,7.25
2022-10-29T07:09:58.477Z,5.90
2022-10-29T07:12:25.837Z,5.55
2022-10-29T07:14:53.172Z,5.40
2022-10-29T07:17:20.415Z,5.60
2022-10-29T07:19:47.663Z,6.40
2022-10-29T07:22:14.915Z,6.45
2022-10-29T07:24:42.127Z,6.28
2022-10-29T07:27:09.544Z,7.43
2022-10-29T07:29:36.792Z,6.38
2022-10-29T07:32:04.226Z,6.20
2022-10-29T07:34:31.494Z,6.15
2022-10-29T07:36:58.749Z,6.18
2022-10-29T07:39:26.057Z,8.00
2022-10-29T07:41:56.680Z,7.50
2022-10-29T07:44:26.484Z,7.10
2022-10-29T07:46:53.712Z,6.45
2022-10-29T07:49:21.019Z,6.47
2022-10-29T07:51:48.897Z,8.82
2022-10-29T07:54:16.127Z,6.18
2022-10-29T07:56:46.691Z,8.18
2022-10-29T07:59:15.791Z,6.95
2022-10-29T08:01:43.279Z,6.15
2022-10-29T08:04:10.973Z,6.38
2022-10-29T08:06:38.287Z,9.05
2022-10-29T08:09:06.515Z,9.10
2022-10-29T08:11:33.877Z,6.68
2022-10-29T08:14:01.150Z,5.90
2022-10-29T08:16:28.491Z,6.30
2022-10-29T08:18:56.101Z,6.63
2022-10-29T08:21:24.229Z,5.70
2022-10-29T08:23:51.538Z,6.80
2022-10-29T08:26:20.303Z,6.85
2022-10-29T08:28:47.528Z,8.27
2022-10-29T08:31:14.870Z,6.45
2022-10-29T08:33:42.135Z,7.20
2022-10-29T08:36:09.411Z,6.45
2022-10-29T08:38:36.647Z,6.55
2022-10-29T08:41:28.392Z,5.60
2022-10-29T08:46:55.242Z,8.40
2022-10-29T08:49:32.833Z,9.80
2022-10-29T08:52:06.060Z,8.07
2022-10-29T08:54:37.047Z,9.55
2022-10-29T08:57:13.573Z,6.63
2022-10-29T08:59:58.213Z,6.40
2022-10-29T09:02:26.196Z,6.50
2022-10-29T09:04:53.620Z,7.68
2022-10-29T09:07:45.083Z,8.00
2022-10-29T09:10:51.138Z,9.10
2022-10-29T09:13:36.402Z,7.32
2022-10-29T09:16:12.442Z,6.57
2022-10-29T09:19:01.338Z,9.27
2022-10-29T09:21:57.044Z,8.85
2022-10-29T09:24:24.258Z,8.57
2022-10-29T09:26:58.739Z,8.82
2022-10-29T09:29:31.782Z,7.88
2022-10-29T09:32:13.099Z,8.93
2022-10-29T09:35:02.570Z,10.67
2022-10-29T09:38:00.353Z,10.32
2022-10-29T09:40:40.447Z,9.43
2022-10-29T09:43:35.420Z,7.60
2022-10-29T09:46:13.157Z,8.25
2022-10-29T09:49:02.100Z,7.60
2022-10-29T09:51:38.545Z,6.72
2022-10-29T09:54:06.216Z,7.00
2022-10-29T09:56:33.695Z,6.88
2022-10-29T09:59:36.885Z,7.70
2022-10-29T10:02:20.853Z,6.75
2022-10-29T10:04:51.393Z,7.03
2022-10-29T10:07:22.204Z,6.60
2022-10-29T10:10:02.721Z,6.55
2022-10-29T10:12:45.674Z,6.68
2022-10-29T10:15:36.782Z,7.82
2022-10-29T10:18:06.564Z,8.10
2022-10-29T10:20:45.562Z,8.52
2022-10-29T10:23:25.118Z,8.63
2022-10-29T10:26:00.471Z,9.20
2022-10-29T10:28:35.685Z,9.70
2022-10-29T10:33:54.657Z,12.88
2022-10-29T10:36:26.862Z,14.20
2022-10-29T10:38:59.116Z,9.20
2022-10-29T10:41:31.165Z,8.50
2022-10-29T10:44:01.509Z,9.52
2022-10-29T10:46:38.996Z,8.27
2022-10-29T10:49:07.574Z,8.35
2022-10-29T10:51:37.849Z,8.48
2022-10-29T10:54:26.262Z,9.32
2022-10-29T10:57:21.757Z,8.38
2022-10-29T11:00:07.159Z,12.30
2022-10-29T11:02:50.736Z,13.45
2022-10-29T11:05:33.618Z,9.27
2022-10-29T11:08:21.645Z,7.35
2022-10-29T11:10:54.796Z,7.25
2022-10-29T11:13:25.241Z,6.70
2022-10-29T11:16:13.767Z,6.95
2022-10-29T11:18:46.464Z,7.00
2022-10-29T11:21:24.247Z,7.28
2022-10-29T11:24:00.185Z,8.48
2022-10-29T11:26:39.744Z,7.32
2022-10-29T11:29:40.498Z,7.13
2022-10-29T11:32:15.471Z,7.07
2022-10-29T11:34:51.804Z,7.47
2022-10-29T11:37:32.605Z,7.45
2022-10-29T11:40:29.238Z,7.70
2022-10-29T11:42:56.483Z,7.90
2022-10-29T11:45:56.212Z,7.28
2022-10-29T11:48:35.487Z,7.55
2022-10-29T11:51:17.422Z,7.22
2022-10-29T11:53:50.259Z,6.43
2022-10-29T11:56:40.355Z,7.30
2022-10-29T11:59:36.627Z,6.95
2022-10-29T12:02:33.384Z,7.22
2022-10-29T12:05:06.769Z,8.00
2022-10-29T12:07:56.036Z,7.10
2022-10-29T12:10:47.439Z,7.45
2022-10-29T12:13:26.126Z,7.78
2022-10-29T12:16:08.358Z,7.13
2022-10-29T12:18:50.991Z,7.38
2022-10-29T12:21:43.486Z,7.53
2022-10-29T12:24:28.200Z,7.57
2022-10-29T12:27:23.640Z,7.90
2022-10-29T12:30:06.876Z,7.68
2022-10-29T12:33:01.410Z,7.05
2022-10-29T12:35:54.875Z,7.22
2022-10-29T12:38:39.671Z,7.45
2022-10-29T12:41:30.483Z,7.38
2022-10-29T12:44:21.205Z,7.53
2022-10-29T12:46:54.569Z,7.25
2022-10-29T12:49:47.009Z,7.57
2022-10-29T12:52:40.041Z,7.22
2022-10-29T12:55:11.950Z,7.70
2022-10-29T12:57:39.307Z,7.47
2022-10-29T13:00:24.932Z,7.90
2022-10-29T13:02:56.712Z,8.00
2022-10-29T13:05:27.519Z,7.53
2022-10-29T13:08:03.546Z,7.97
2022-10-29T13:10:33.837Z,7.90
2022-10-29T13:13:16.450Z,8.38
2022-10-29T13:16:02.570Z,8.98
2022-10-29T13:18:56.914Z,8.35
2022-10-29T13:22:01.873Z,8.55
2022-10-29T13:24:30.595Z,8.43
2022-10-29T13:27:16.641Z,7.53
2022-10-29T13:29:46.967Z,8.02
2022-10-29T13:32:49.756Z,7.53
2022-10-29T13:35:16.973Z,7.80
2022-10-29T13:37:46.962Z,8.68
2022-10-29T13:40:23.144Z,8.10
2022-10-29T13:42:55.460Z,8.77
2022-10-29T13:45:23.151Z,8.27
2022-10-29T13:47:50.568Z,8.18
2022-10-29T13:50:19.339Z,7.95
2022-10-29T13:52:53.036Z,7.90
2022-10-29T13:55:21.916Z,7.97
2022-10-29T13:58:08.231Z,9.90
2022-10-29T14:00:37.742Z,11.07
2022-10-29T14:03:25.438Z,11.25
2022-10-29T14:06:00.807Z,7.55
2022-10-29T14:08:46.465Z,8.23
2022-10-29T14:11:30.878Z,8.35
2022-10-29T14:14:03.031Z,9.70
2022-10-29T14:16:32.924Z,13.43
2022-10-29T14:19:14.841Z,9.95
2022-10-29T14:21:42.160Z,8.52
2022-10-29T14:24:11.528Z,7.50
2022-10-29T14:26:41.906Z,7.40
2022-10-29T14:29:19.261Z,7.82
2022-10-29T14:31:47.679Z,7.70
2022-10-29T14:34:27.449Z,8.13
2022-10-29T14:37:01.111Z,9.07
2022-10-29T14:39:58.383Z,8.60
2022-10-29T14:42:40.597Z,10.55
2022-10-29T14:45:19.244Z,8.10
2022-10-29T14:47:53.356Z,8.93
2022-10-29T14:50:26.893Z,8.13
2022-10-29T14:53:01.234Z,8.63
2022-10-29T14:55:33.802Z,8.27
2022-10-29T15:00:58.128Z,7.72
2022-10-29T15:03:29.430Z,8.32
2022-10-29T15:06:18.683Z,7.95
2022-10-29T15:08:54.903Z,7.45
2022-10-29T15:11:38.285Z,7.50
2022-10-29T15:16:54.948Z,7.28
2022-10-29T15:19:22.867Z,8.02
2022-10-29T15:21:50.561Z,7.25
2022-10-29T15:24:21.500Z,7.60
2022-10-29T15:26:53.038Z,7.50
2022-10-29T15:29:32.181Z,7.35
2022-10-29T15:32:01.489Z,7.63
2022-10-29T15:34:36.762Z,7.57
2022-10-29T15:37:19.229Z,7.22
2022-10-29T15:40:14.909Z,7.60
2022-10-29T15:42:42.334Z,6.95
2022-10-29T15:45:14.762Z,7.47
2022-10-29T15:47:50.806Z,9.02
2022-10-29T15:50:24.875Z,10.15
2022-10-29T15:52:55.822Z,9.25
2022-10-29T15:55:27.338Z,9.00
2022-10-29T15:58:00.639Z,8.48
2022-10-29T16:00:28.615Z,8.27
2022-10-29T16:03:01.177Z,7.32
2022-10-29T16:05:28.583Z,7.55
2022-10-29T16:07:57.889Z,12.10
2022-10-29T16:10:25.198Z,10.98
2022-10-29T16:12:52.453Z,8.75
2022-10-29T16:15:20.397Z,7.30
2022-10-29T16:17:47.737Z,6.90
2022-10-29T16:20:17.500Z,7.45
2022-10-29T16:22:47.905Z,7.32
2022-10-29T16:25:28.591Z,7.90
2022-10-29T16:27:56.312Z,6.97
2022-10-29T16:30:24.446Z,7.05
2022-10-29T16:32:52.617Z,7.50
2022-10-29T16:35:21.808Z,8.25
2022-10-29T16:37:49.886Z,7.55
2022-10-29T16:40:18.149Z,8.40
2022-10-29T16:42:45.899Z,6.95
2022-10-29T16:45:19.299Z,7.35
2022-10-29T16:47:46.565Z,7.82
2022-10-29T16:50:19.741Z,7.15
2022-10-29T16:52:47.517Z,7.30
2022-10-29T16:55:15.320Z,7.05
2022-10-29T16:57:42.684Z,6.70
2022-10-29T17:00:10.649Z,6.95
2022-10-29T17:02:38.349Z,9.98
2022-10-29T17:05:07.127Z,10.82
2022-10-29T17:07:37.263Z,11.65
2022-10-29T17:10:06.949Z,9.32
2022-10-29T17:12:35.098Z,8.10
2022-10-29T17:15:02.910Z,7.75
2022-10-29T17:17:31.754Z,8.18
2022-10-29T17:19:59.230Z,7.38
2022-10-29T17:22:26.489Z,7.57
2022-10-29T17:24:53.867Z,7.75
2022-10-29T17:27:21.160Z,8.50
2022-10-29T17:29:48.548Z,8.45
2022-10-29T17:32:16.552Z,7.35
2022-10-29T17:34:43.796Z,7.97
2022-10-29T17:37:12.057Z,7.88
2022-10-29T17:39:39.263Z,7.40
2022-10-29T17:42:06.552Z,7.60
2022-10-29T17:44:35.362Z,6.80
2022-10-29T17:47:02.693Z,7.10
2022-10-29T17:49:30.083Z,7.55
2022-10-29T17:51:57.498Z,7.60
2022-10-29T17:54:24.892Z,7.43
2022-10-29T17:56:52.323Z,8.40
2022-10-29T17:59:19.762Z,10.77
2022-10-29T18:01:47.252Z,17.35
2022-10-29T18:04:15.144Z,16.13
2022-10-29T18:06:42.484Z,11.05
2022-10-29T18:09:09.741Z,9.82
2022-10-29T18:11:37.187Z,9.25
2022-10-29T18:14:04.545Z,8.35
2022-10-29T18:16:32.222Z,8.32
2022-10-29T18:19:02.869Z,8.10
2022-10-29T18:21:31.494Z,7.97
2022-10-29T18:23:58.831Z,9.15
2022-10-29T18:26:34.869Z,11.55
2022-10-29T18:29:05.391Z,11.35
2022-10-29T18:31:32.829Z,9.48
2022-10-29T18:34:04.816Z,8.98
2022-10-29T18:36:32.557Z,8.52
2022-10-29T18:39:00.140Z,8.55
2022-10-29T18:41:27.755Z,9.77
2022-10-29T18:43:55.481Z,8.27
2022-10-29T18:46:23.000Z,7.70
2022-10-29T18:48:50.780Z,8.10
2022-10-29T18:51:26.473Z,8.30
2022-10-29T18:53:55.525Z,7.88
2022-10-29T18:56:23.387Z,8.55
2022-10-29T18:58:51.141Z,10.90
2022-10-29T19:01:22.907Z,12.65
2022-10-29T19:03:52.732Z,14.05
2022-10-29T19:06:21.720Z,10.30
2022-10-29T19:08:49.798Z,9.10
2022-10-29T19:11:20.446Z,7.90
2022-10-29T19:13:56.039Z,7.53
2022-10-29T19:16:23.834Z,7.90
2022-10-29T19:18:56.490Z,11.80
2022-10-29T19:21:24.634Z,10.82
2022-10-29T19:23:59.513Z,9.52
2022-10-29T19:26:29.164Z,10.23
2022-10-29T19:28:58.651Z,9.60
2022-10-29T19:31:27.499Z,10.18
2022-10-29T19:33:57.231Z,11.57
2022-10-29T19:36:26.216Z,11.20
2022-10-29T19:38:53.933Z,9.57
2022-10-29T19:41:21.472Z,8.60
2022-10-29T19:43:49.049Z,8.45
2022-10-29T19:46:18.716Z,9.18
2022-10-29T19:48:50.798Z,17.25
2022-10-29T19:51:19.011Z,14.75
2022-10-29T19:53:46.777Z,11.55
2022-10-29T19:56:16.311Z,9.85
2022-10-29T19:58:44.119Z,9.00
2022-10-29T20:01:14.869Z,8.15
2022-10-29T20:03:43.129Z,8.90
2022-10-29T20:06:10.556Z,9.45
2022-10-29T20:08:38.021Z,8.38
2022-10-29T20:11:05.989Z,8.10
2022-10-29T20:13:33.462Z,7.18
2022-10-29T20:16:06.464Z,7.40
2022-10-29T20:18:35.664Z,7.20
2022-10-29T20:21:03.085Z,9.95
2022-10-29T20:23:30.644Z,11.80
2022-10-29T20:25:58.071Z,11.73
2022-10-29T20:28:25.594Z,11.10
2022-10-29T20:31:12.586Z,9.25
2022-10-29T20:33:40.105Z,8.90
2022-10-29T20:36:07.622Z,7.95
2022-10-29T20:38:35.211Z,10.07
2022-10-29T20:41:02.493Z,10.13
2022-10-29T20:43:29.822Z,10.30
2022-10-29T20:46:04.447Z,9.52
2022-10-29T20:48:32.899Z,11.30
2022-10-29T20:51:00.228Z,11.68
2022-10-29T20:53:27.603Z,11.57
2022-10-29T20:55:55.216Z,12.73
2022-10-29T20:58:22.780Z,11.88
2022-10-29T21:00:50.225Z,10.98
2022-10-29T21:03:18.438Z,9.68
2022-10-29T21:05:45.836Z,10.13
2022-10-29T21:08:13.326Z,11.35
2022-10-29T21:10:40.719Z,9.88
2022-10-29T21:13:07.933Z,9.75
2022-10-29T21:15:36.456Z,9.32
2022-10-29T21:18:03.984Z,9.10
2022-10-29T21:20:32.236Z,11.43
2022-10-29T21:22:59.912Z,11.65
2022-10-29T21:25:27.436Z,10.18
2022-10-29T21:27:56.028Z,10.27
2022-10-29T21:30:23.619Z,10.23
2022-10-29T21:32:50.980Z,15.00
2022-10-29T21:35:18.320Z,14.30
2022-10-29T21:37:45.599Z,12.85
2022-10-29T21:40:13.486Z,14.18
2022-10-29T21:42:40.793Z,13.73
2022-10-29T21:45:08.304Z,10.38
2022-10-29T21:47:35.715Z,9.45
2022-10-29T21:50:03.177Z,8.93
2022-10-29T21:52:30.429Z,8.30
2022-10-29T21:54:57.619Z,9.00
2022-10-29T21:57:24.902Z,9.00
2022-10-29T21:59:52.086Z,8.32
2022-10-29T22:02:19.539Z,7.88
2022-10-29T22:04:47.034Z,8.10
2022-10-29T22:07:14.304Z,8.07
2022-10-29T22:09:41.508Z,8.27
2022-10-29T22:12:09.354Z,7.95
2022-10-29T22:14:37.502Z,8.73
2022-10-29T22:17:06.265Z,9.50
2022-10-29T22:19:34.332Z,8.63
2022-10-29T22:22:01.632Z,9.35
2022-10-29T22:24:28.872Z,9.90
2022-10-29T22:26:56.450Z,9.18
2022-10-29T22:29:23.731Z,8.57
2022-10-29T22:31:50.997Z,9.77
2022-10-29T22:34:18.583Z,9.05
2022-10-29T22:36:46.066Z,9.65
2022-10-29T22:39:13.341Z,8.75
2022-10-29T22:41:40.887Z,9.45
2022-10-29T22:44:08.485Z,9.23
2022-10-29T22:46:36.112Z,8.98
2022-10-29T22:49:03.420Z,9.90
2022-10-29T22:51:34.128Z,9.40
2022-10-29T22:54:01.734Z,9.70
2022-10-29T22:56:35.223Z,8.48
2022-10-29T22:59:03.003Z,7.90
2022-10-29T23:01:32.646Z,8.82
2022-10-29T23:04:00.431Z,8.80
2022-10-29T23:06:29.128Z,7.90
2022-10-29T23:09:02.028Z,8.93
2022-10-29T23:11:32.382Z,8.82
2022-10-29T23:14:01.102Z,8.95
2022-10-29T23:16:30.254Z,8.77
2022-10-29T23:18:59.978Z,7.72
2022-10-29T23:21:28.054Z,8.30
2022-10-29T23:23:55.653Z,7.40
2022-10-29T23:26:23.915Z,8.13
2022-10-29T23:28:51.447Z,8.73
2022-10-29T23:31:24.287Z,7.53
2022-10-29T23:33:54.126Z,8.15
2022-10-29T23:36:23.365Z,7.78
2022-10-29T23:38:58.249Z,7.70
2022-10-29T23:41:26.335Z,7.72
2022-10-29T23:43:53.889Z,7.55
2022-10-29T23:46:21.272Z,8.05
2022-10-29T23:48:48.629Z,8.68
2022-10-29T23:51:16.033Z,7.88
2022-10-29T23:53:43.358Z,8.30
2022-10-29T23:56:10.751Z,8.05
2022-10-29T23:58:38.021Z,8.50
